Time;durP1;ratioP1;P1;durP2;ratioP2;P2;SDS_P1;SDS_P2;PMS_P1;PMS_P2;Temp;Humidity;BMP_temperature;BMP_pressure;BME280_temperature;BME280_humidity;BME280_pressure;Samples;Min_cycle;Max_cycle;Signal;HPM_P1;HPM_P2
2021/08/05 00:02:09;;;;;;;19.77;17.75;;;;;;;14.48;85.89;101247.03;5080904;28;20342;-71
2021/08/05 00:04:35;;;;;;;19.17;17.25;;;;;;;14.47;86.17;101245.34;5082791;28;20040;-71
2021/08/05 00:07:00;;;;;;;17.45;15.70;;;;;;;14.34;86.02;101250.38;5070374;28;20052;-71
2021/08/05 00:09:26;;;;;;;21.52;16.38;;;;;;;14.31;86.25;101253.16;5081463;28;20044;-71
2021/08/05 00:11:51;;;;;;;19.23;15.48;;;;;;;14.37;85.60;101245.81;5065073;28;20040;-71
2021/08/05 00:14:17;;;;;;;18.65;16.70;;;;;;;14.40;85.56;101239.53;5080663;28;20074;-71
2021/08/05 00:16:42;;;;;;;16.38;14.45;;;;;;;14.42;85.03;101227.13;5092383;28;20044;-71
2021/08/05 00:19:08;;;;;;;20.08;17.50;;;;;;;14.31;85.15;101232.94;5102268;28;20036;-71
2021/08/05 00:21:33;;;;;;;23.08;18.42;;;;;;;14.12;86.38;101230.38;5099706;28;20030;-71
2021/08/05 00:23:59;;;;;;;22.73;18.92;;;;;;;14.26;86.57;101231.47;5083825;28;20044;-71
2021/08/05 00:26:24;;;;;;;18.27;16.48;;;;;;;14.17;85.60;101233.63;5083119;28;20036;-71
2021/08/05 00:28:50;;;;;;;17.42;15.65;;;;;;;14.17;85.89;101231.00;5066957;28;20223;-71
2021/08/05 00:31:17;;;;;;;18.88;16.83;;;;;;;13.99;86.36;101224.84;5080979;28;20028;-71
2021/08/05 00:33:42;;;;;;;26.90;19.85;;;;;;;14.06;86.37;101220.16;5081814;28;20208;-71
2021/08/05 00:36:08;;;;;;;19.25;17.48;;;;;;;14.07;86.35;101219.22;5101286;28;20123;-71
2021/08/05 00:38:33;;;;;;;19.60;17.35;;;;;;;14.05;85.95;101207.06;5048487;28;20039;-71
2021/08/05 00:40:59;;;;;;;25.33;20.67;;;;;;;14.07;86.49;101210.47;5100884;28;20032;-71
2021/08/05 00:43:24;;;;;;;25.05;20.88;;;;;;;14.01;86.81;101214.25;5044191;28;20032;-71
2021/08/05 00:45:50;;;;;;;21.40;19.17;;;;;;;14.03;86.77;101222.94;5062996;28;20350;-71
2021/08/05 00:48:15;;;;;;;23.33;20.83;;;;;;;14.04;86.29;101211.44;5080448;28;20100;-71
2021/08/05 00:50:41;;;;;;;21.10;18.50;;;;;;;13.95;86.07;101210.16;5083222;28;20059;-71
2021/08/05 00:53:06;;;;;;;23.30;17.67;;;;;;;13.85;87.12;101206.25;5066404;28;20039;-71
2021/08/05 00:55:32;;;;;;;21.48;18.13;;;;;;;13.87;86.36;101208.81;5080223;28;20044;-71
2021/08/05 00:57:57;;;;;;;23.23;19.83;;;;;;;13.73;87.59;101202.41;5101040;28;20044;-71
2021/08/05 01:00:24;;;;;;;26.92;21.70;;;;;;;13.69;88.10;101205.28;5063763;28;20032;-71
2021/08/05 01:03:21;;;;;;;24.17;20.27;;;;;;;13.75;87.71;101204.97;5056326;28;20055;-71
2021/08/05 01:05:48;;;;;;;28.97;22.47;;;;;;;13.80;87.83;101197.72;5045953;28;20120;-71
2021/08/05 01:08:16;;;;;;;29.38;21.73;;;;;;;13.85;87.93;101197.50;5025501;28;20282;-71
2021/08/05 01:10:48;;;;;;;30.30;20.80;;;;;;;13.76;87.58;101202.28;5009185;28;20035;-71
2021/08/05 01:13:26;;;;;;;27.50;21.98;;;;;;;13.77;88.51;101197.84;5040857;28;20096;-71
2021/08/05 01:15:52;;;;;;;25.42;21.85;;;;;;;13.80;88.02;101195.94;5048145;28;20045;-71
2021/08/05 01:18:23;;;;;;;23.15;20.05;;;;;;;13.85;87.63;101193.09;5025589;28;20127;-71
2021/08/05 01:20:48;;;;;;;24.45;20.00;;;;;;;13.77;87.26;101193.47;5058619;28;20061;-71
2021/08/05 01:23:39;;;;;;;26.63;21.25;;;;;;;13.82;86.55;101186.19;5024680;28;20206;-71
2021/08/05 01:26:36;;;;;;;20.60;18.50;;;;;;;13.60;86.90;101180.25;5058450;28;20299;-71
2021/08/05 01:29:02;;;;;;;22.95;19.60;;;;;;;13.56;87.74;101184.81;5038339;28;20052;-71
2021/08/05 01:31:28;;;;;;;20.67;18.55;;;;;;;13.68;87.21;101186.00;5077655;28;20040;-71
2021/08/05 01:33:54;;;;;;;22.35;19.58;;;;;;;13.51;87.39;101189.44;5061436;28;20048;-71
2021/08/05 01:36:21;;;;;;;22.38;19.13;;;;;;;13.49;87.59;101185.19;5043019;28;20421;-71
2021/08/05 01:38:47;;;;;;;21.80;19.50;;;;;;;13.54;87.63;101186.66;5077034;28;20036;-71
2021/08/05 01:41:12;;;;;;;23.58;20.27;;;;;;;13.55;87.56;101177.84;5057219;28;20040;-71
2021/08/05 01:43:38;;;;;;;24.02;20.30;;;;;;;13.55;87.55;101176.97;5029261;28;20244;-71
2021/08/05 01:46:03;;;;;;;26.58;21.20;;;;;;;13.42;87.12;101174.97;5080139;28;20041;-71
2021/08/05 01:48:29;;;;;;;22.02;19.58;;;;;;;13.38;87.67;101178.63;5046923;28;20035;-71
2021/08/05 01:50:54;;;;;;;24.83;22.08;;;;;;;13.36;87.96;101177.00;5063925;28;20103;-71
2021/08/05 01:53:19;;;;;;;26.55;20.80;;;;;;;13.33;87.88;101171.88;5099375;28;20384;-71
2021/08/05 01:55:46;;;;;;;33.70;23.65;;;;;;;13.38;87.82;101164.63;5065276;28;20063;-71
2021/08/05 01:58:11;;;;;;;28.85;23.67;;;;;;;13.33;88.43;101170.09;5079996;28;20073;-71
2021/08/05 02:00:37;;;;;;;28.75;22.42;;;;;;;13.43;88.46;101170.53;5066420;28;20052;-71
2021/08/05 02:03:03;;;;;;;22.70;19.20;;;;;;;13.41;87.46;101161.88;5061764;28;20303;-71
2021/08/05 02:05:37;;;;;;;19.85;17.75;;;;;;;13.19;87.48;101168.09;5079400;28;20258;-71
2021/08/05 02:08:08;;;;;;;19.98;17.83;;;;;;;13.20;87.26;101167.16;5080120;28;20032;-71
2021/08/05 02:10:43;;;;;;;24.20;18.70;;;;;;;13.06;87.95;101165.19;5062292;28;20044;-71
2021/08/05 02:13:12;;;;;;;18.23;15.00;;;;;;;13.12;86.42;101163.19;5079830;28;20044;-71
2021/08/05 02:15:38;;;;;;;19.30;15.40;;;;;;;12.98;87.26;101156.78;5045557;28;20638;-71
2021/08/05 02:18:04;;;;;;;16.70;13.27;;;;;;;12.97;86.93;101155.09;5079762;28;20044;-71
2021/08/05 02:20:29;;;;;;;14.48;13.07;;;;;;;13.02;86.75;101154.88;5045489;28;20043;-71
2021/08/05 02:22:55;;;;;;;16.38;14.88;;;;;;;12.95;87.28;101150.81;5045476;28;20021;-71
2021/08/05 02:25:20;;;;;;;26.65;18.73;;;;;;;13.04;87.13;101147.75;5043751;28;20032;-71
2021/08/05 02:27:46;;;;;;;19.98;17.20;;;;;;;12.97;88.14;101141.94;5061682;28;20035;-71
2021/08/05 02:30:11;;;;;;;25.60;20.73;;;;;;;13.10;88.72;101136.09;5062985;28;20199;-71
2021/08/05 02:32:37;;;;;;;23.58;19.27;;;;;;;13.12;88.63;101135.13;5061637;28;20052;-71
2021/08/05 02:35:04;;;;;;;24.95;20.70;;;;;;;13.15;88.53;101126.22;5062127;28;20035;-71
2021/08/05 02:37:29;;;;;;;25.70;19.92;;;;;;;13.16;88.42;101127.94;5045432;28;20242;-71
2021/08/05 02:39:55;;;;;;;25.58;19.35;;;;;;;13.13;89.00;101128.06;5041108;28;20020;-71
2021/08/05 02:42:20;;;;;;;23.80;21.23;;;;;;;13.20;88.83;101135.59;5082618;28;20204;-71
2021/08/05 02:44:46;;;;;;;26.08;19.30;;;;;;;13.12;88.69;101126.38;5048742;28;20012;-71
2021/08/05 02:47:12;;;;;;;23.65;19.20;;;;;;;12.94;88.62;101131.56;5053186;28;20073;-71
2021/08/05 02:49:38;;;;;;;18.23;15.65;;;;;;;12.91;87.31;101131.69;5083687;28;20048;-71
2021/08/05 02:52:03;;;;;;;21.50;17.90;;;;;;;12.85;88.33;101124.94;5085581;28;20084;-71
2021/08/05 02:54:29;;;;;;;20.10;15.85;;;;;;;12.77;88.63;101131.47;5084586;28;20307;-71
2021/08/05 02:56:55;;;;;;;19.10;16.08;;;;;;;12.96;87.58;101132.34;5083883;28;20032;-70
2021/08/05 02:59:20;;;;;;;14.65;12.73;;;;;;;13.04;86.95;101124.97;5066551;28;20056;-70
2021/08/05 03:01:46;;;;;;;16.50;14.90;;;;;;;13.03;86.55;101125.88;5103166;28;20028;-70
2021/08/05 03:04:11;;;;;;;21.42;18.65;;;;;;;12.95;88.57;101122.75;5102652;28;20284;-70
2021/08/05 03:06:36;;;;;;;23.27;20.77;;;;;;;12.94;89.28;101123.69;5079024;28;20036;-70
2021/08/05 03:09:02;;;;;;;26.33;21.60;;;;;;;13.07;88.23;101123.97;5031971;28;20016;-70
2021/08/05 03:11:27;;;;;;;24.38;19.73;;;;;;;13.04;88.76;101116.19;5065732;28;20139;-71
2021/08/05 03:13:53;;;;;;;30.25;24.02;;;;;;;13.05;89.19;101123.19;5048184;28;20025;-71
2021/08/05 03:16:18;;;;;;;26.63;22.65;;;;;;;13.16;88.54;101123.53;5065003;28;20039;-71
2021/08/05 03:18:44;;;;;;;22.33;19.67;;;;;;;13.16;88.66;101112.16;5082814;28;20256;-71
2021/08/05 03:21:09;;;;;;;26.27;20.80;;;;;;;13.29;88.45;101115.06;5065884;28;20031;-71
2021/08/05 03:23:35;;;;;;;27.27;21.15;;;;;;;13.34;88.23;101115.72;5064412;28;20043;-71
2021/08/05 03:26:00;;;;;;;24.52;20.20;;;;;;;13.31;88.21;101124.59;5082740;28;20251;-71
2021/08/05 03:28:25;;;;;;;22.08;18.95;;;;;;;13.28;88.06;101118.59;5101942;28;20035;-71
2021/08/05 03:30:51;;;;;;;23.48;20.65;;;;;;;13.30;88.14;101120.25;5097618;28;20401;-71
2021/08/05 03:33:16;;;;;;;22.05;19.65;;;;;;;13.24;88.80;101115.25;5081840;28;20040;-71
2021/08/05 03:35:42;;;;;;;29.73;23.70;;;;;;;13.28;89.18;101114.22;5082441;28;20513;-71
2021/08/05 03:38:07;;;;;;;28.27;22.67;;;;;;;13.43;89.04;101115.28;5081917;28;20081;-71
2021/08/05 03:40:32;;;;;;;26.73;21.38;;;;;;;13.52;88.53;101114.84;5067324;28;20035;-71
2021/08/05 03:42:58;;;;;;;23.58;20.95;;;;;;;13.59;88.62;101113.63;5082839;28;20251;-71
2021/08/05 03:45:23;;;;;;;24.85;21.05;;;;;;;13.61;88.18;101114.38;5101971;28;20036;-71
2021/08/05 03:47:49;;;;;;;22.48;20.23;;;;;;;13.50;88.45;101114.06;5089731;28;20101;-71
2021/08/05 03:50:14;;;;;;;23.63;20.52;;;;;;;13.41;88.56;101104.00;5080734;28;20040;-71
2021/08/05 03:52:40;;;;;;;32.08;23.85;;;;;;;13.36;88.37;101100.72;5082966;28;20066;-71
2021/08/05 03:55:06;;;;;;;32.53;23.77;;;;;;;13.42;88.74;101105.69;5030905;28;20028;-71
2021/08/05 03:57:31;;;;;;;26.73;21.95;;;;;;;13.43;88.61;101095.09;5072974;28;20067;-71
2021/08/05 03:59:57;;;;;;;23.95;21.13;;;;;;;13.43;88.30;101097.72;5102175;28;20361;-71
2021/08/05 04:02:22;;;;;;;23.75;20.15;;;;;;;13.46;88.21;101107.22;5099969;28;20073;-71
2021/08/05 04:04:47;;;;;;;23.25;20.25;;;;;;;13.54;88.28;101094.56;5083747;28;20032;-71
2021/08/05 04:07:13;;;;;;;23.98;20.20;;;;;;;13.51;88.12;101092.06;5076367;28;20016;-71
2021/08/05 04:09:39;;;;;;;24.80;21.00;;;;;;;13.59;88.31;101089.09;5047022;28;20024;-71
2021/08/05 04:12:04;;;;;;;24.02;21.35;;;;;;;13.59;88.22;101086.47;5063833;28;20037;-73
2021/08/05 04:14:29;;;;;;;24.48;21.60;;;;;;;13.63;87.97;101085.38;5082529;28;20031;-71
2021/08/05 04:16:55;;;;;;;24.30;20.73;;;;;;;13.66;88.01;101081.72;5085498;28;20051;-71
2021/08/05 04:19:20;;;;;;;24.38;21.60;;;;;;;13.68;88.15;101082.50;5066700;28;20039;-71
2021/08/05 04:21:49;;;;;;;22.85;20.35;;;;;;;13.73;88.00;101085.75;5101517;28;20174;-71
2021/08/05 04:24:15;;;;;;;26.88;21.90;;;;;;;13.74;88.00;101084.84;5099635;28;20032;-71
2021/08/05 04:26:40;;;;;;;27.35;21.00;;;;;;;13.77;87.73;101077.66;5081687;28;20099;-71
2021/08/05 04:29:06;;;;;;;25.88;20.75;;;;;;;13.73;88.43;101088.38;5063719;28;20032;-71
2021/08/05 04:31:31;;;;;;;28.42;21.02;;;;;;;13.80;87.71;101085.38;5062904;28;20051;-71
2021/08/05 04:33:57;;;;;;;24.85;21.88;;;;;;;13.73;88.11;101091.88;5063415;28;20352;-71
2021/08/05 04:36:22;;;;;;;25.60;22.17;;;;;;;13.76;87.93;101089.09;5081699;28;20028;-71
2021/08/05 04:38:47;;;;;;;30.88;23.50;;;;;;;13.83;88.25;101092.28;5082178;28;20044;-71
2021/08/05 04:41:13;;;;;;;27.40;22.85;;;;;;;13.86;88.41;101089.50;5101017;28;20115;-71
2021/08/05 04:43:38;;;;;;;26.77;22.83;;;;;;;13.90;88.19;101085.78;5086460;28;20258;-71
2021/08/05 04:46:04;;;;;;;34.22;23.83;;;;;;;13.88;88.67;101089.41;5080182;28;20036;-71
2021/08/05 04:48:29;;;;;;;28.83;22.67;;;;;;;13.88;88.46;101084.13;5071911;28;20036;-71
2021/08/05 04:50:54;;;;;;;29.42;23.58;;;;;;;13.90;88.22;101080.50;5079080;28;20036;-71
2021/08/05 04:53:20;;;;;;;29.88;25.38;;;;;;;14.07;87.83;101089.31;5078211;28;20486;-71
2021/08/05 04:55:45;;;;;;;31.45;26.52;;;;;;;14.50;85.68;101085.31;5079878;28;20324;-71
2021/08/05 04:58:11;;;;;;;37.10;26.50;;;;;;;14.55;85.98;101083.28;5067601;28;20043;-71
2021/08/05 05:00:41;;;;;;;33.65;25.92;;;;;;;14.40;86.85;101087.56;5082430;28;20024;-71
2021/08/05 05:03:06;;;;;;;36.38;29.13;;;;;;;14.36;86.93;101087.81;5083072;28;20103;-71
2021/08/05 05:05:32;;;;;;;35.20;28.55;;;;;;;14.37;87.04;101082.47;5100309;28;20047;-71
2021/08/05 05:08:10;;;;;;;41.80;29.00;;;;;;;14.29;86.99;101081.16;5071818;28;20028;-71
2021/08/05 05:10:35;;;;;;;35.67;28.45;;;;;;;14.26;87.46;101081.31;5083873;28;20254;-71
2021/08/05 05:13:01;;;;;;;37.75;29.08;;;;;;;14.35;86.71;101080.81;5100911;28;20087;-71
2021/08/05 05:15:26;;;;;;;36.05;28.70;;;;;;;14.52;86.72;101082.59;5081979;28;20375;-71
2021/08/05 05:17:51;;;;;;;36.30;30.15;;;;;;;14.56;86.98;101094.66;5077376;28;20041;-71
2021/08/05 05:20:17;;;;;;;40.15;29.98;;;;;;;14.56;87.26;101076.22;5078755;28;20036;-71
2021/08/05 05:22:42;;;;;;;33.30;27.45;;;;;;;14.56;86.97;101084.97;5080410;28;20168;-71
2021/08/05 05:25:08;;;;;;;35.83;27.70;;;;;;;14.66;86.89;101085.38;5080267;28;20036;-71
2021/08/05 05:27:34;;;;;;;35.35;27.27;;;;;;;14.70;86.77;101078.16;5077142;28;20044;-71
2021/08/05 05:30:01;;;;;;;37.05;28.25;;;;;;;14.74;86.32;101085.78;5079249;28;20039;-71
2021/08/05 05:32:27;;;;;;;35.22;27.83;;;;;;;14.79;86.42;101072.38;5078429;28;20032;-71
2021/08/05 05:34:53;;;;;;;34.38;27.77;;;;;;;14.88;85.29;101085.06;5054107;28;20086;-71
2021/08/05 05:37:21;;;;;;;31.00;27.63;;;;;;;14.92;85.92;101080.47;5060810;28;20104;-71
2021/08/05 05:39:47;;;;;;;34.70;27.97;;;;;;;15.09;85.48;101085.63;5026389;28;20082;-71
2021/08/05 05:42:12;;;;;;;39.10;28.73;;;;;;;15.06;86.23;101085.81;5058270;28;20642;-71
2021/08/05 05:44:37;;;;;;;33.50;28.42;;;;;;;15.19;84.49;101080.72;5058732;28;20033;-71
2021/08/05 05:47:03;;;;;;;29.88;26.73;;;;;;;15.27;84.18;101082.91;5059889;28;20502;-71
2021/08/05 05:49:28;;;;;;;11.27;10.20;;;;;;;17.12;74.14;101078.00;5059857;28;20043;-71
2021/08/05 05:51:54;;;;;;;12.38;9.88;;;;;;;17.50;71.76;101085.25;5059911;28;20224;-71
2021/08/05 05:54:19;;;;;;;6.53;4.75;;;;;;;18.59;66.67;101074.31;5061135;28;20047;-72
2021/08/05 05:56:44;;;;;;;6.80;2.90;;;;;;;20.00;61.78;101079.06;5066755;28;20074;-72
2021/08/05 05:59:10;;;;;;;10.52;2.95;;;;;;;20.46;60.34;101069.31;5073028;28;20036;-72
2021/08/05 06:01:35;;;;;;;3.30;2.20;;;;;;;20.59;59.68;101071.88;5079066;28;20324;-75
2021/08/05 06:04:01;;;;;;;20.13;3.20;;;;;;;20.59;60.33;101072.72;5072927;28;20025;-73
2021/08/05 06:06:26;;;;;;;23.33;6.85;;;;;;;20.12;62.45;101070.16;5068884;28;20051;-74
2021/08/05 06:08:52;;;;;;;10.02;3.00;;;;;;;20.69;60.03;101068.38;5038673;28;20025;-74
2021/08/05 06:11:17;;;;;;;11.32;3.20;;;;;;;20.69;59.98;101070.22;5049836;28;20056;-75
2021/08/05 06:13:43;;;;;;;15.25;9.63;;;;;;;20.58;61.08;101064.88;5077524;28;20362;-74
2021/08/05 06:16:08;;;;;;;16.27;14.25;;;;;;;18.63;67.95;101067.84;5082425;28;20220;-72
2021/08/05 06:18:34;;;;;;;9.77;4.18;;;;;;;20.29;62.38;101068.00;5066404;28;20119;-74
2021/08/05 06:20:59;;;;;;;21.80;19.58;;;;;;;17.81;70.95;101062.84;5062318;28;20440;-73
2021/08/05 06:23:25;;;;;;;21.17;19.08;;;;;;;17.59;72.55;101065.22;5078074;28;20319;-71
2021/08/05 06:25:50;;;;;;;8.15;5.55;;;;;;;19.68;64.27;101061.09;5078982;28;20258;-72
2021/08/05 06:28:15;;;;;;;9.77;4.82;;;;;;;20.08;62.96;101067.84;5081709;28;20039;-73
2021/08/05 06:30:41;;;;;;;10.20;5.30;;;;;;;20.37;61.75;101065.56;5077964;28;20075;-73
2021/08/05 06:33:06;;;;;;;13.27;5.22;;;;;;;21.11;59.41;101067.69;5053443;28;20118;-74
2021/08/05 06:35:32;;;;;;;17.10;14.63;;;;;;;20.11;62.20;101067.63;5069133;28;20100;-74
2021/08/05 06:37:57;;;;;;;22.92;20.50;;;;;;;18.67;67.25;101063.19;5064320;28;20028;-72
2021/08/05 06:40:22;;;;;;;18.05;16.17;;;;;;;18.42;68.44;101071.03;5057683;28;20235;-72
2021/08/05 06:42:48;;;;;;;22.80;19.52;;;;;;;18.79;67.67;101062.28;5066141;28;20033;-71
2021/08/05 06:45:13;;;;;;;7.50;6.80;;;;;;;19.23;66.21;101070.66;5065610;28;20052;-72
2021/08/05 06:47:41;;;;;;;13.10;6.68;;;;;;;20.68;60.86;101066.72;5071715;28;20037;-74
2021/08/05 06:50:08;;;;;;;9.17;5.77;;;;;;;20.92;60.06;101064.84;5073318;28;20066;-74
2021/08/05 06:52:33;;;;;;;7.88;5.90;;;;;;;20.99;59.67;101068.69;5052617;28;20380;-74
2021/08/05 06:54:59;;;;;;;8.20;5.75;;;;;;;21.01;59.43;101069.41;5074921;28;20262;-74
2021/08/05 06:57:27;;;;;;;8.15;5.47;;;;;;;20.99;59.41;101066.91;5071456;28;20024;-74
2021/08/05 06:59:52;;;;;;;5.68;5.18;;;;;;;20.94;59.81;101071.75;5074036;28;20036;-74
2021/08/05 07:02:18;;;;;;;6.35;4.85;;;;;;;20.96;59.44;101064.47;5062843;28;20021;-74
2021/08/05 07:04:43;;;;;;;6.15;5.57;;;;;;;21.03;59.12;101073.66;5068137;28;20036;-73
2021/08/05 07:07:09;;;;;;;5.95;5.40;;;;;;;21.01;59.26;101059.63;5047640;28;20385;-74
2021/08/05 07:09:34;;;;;;;5.90;5.40;;;;;;;20.89;59.79;101060.63;5053399;28;20028;-74
2021/08/05 07:11:59;;;;;;;9.02;5.65;;;;;;;20.98;59.42;101057.22;5075784;28;20206;-74
2021/08/05 07:14:25;;;;;;;23.02;20.13;;;;;;;18.33;69.58;101060.25;5054181;28;20033;-74
2021/08/05 07:16:50;;;;;;;7.68;6.38;;;;;;;19.73;64.13;101066.06;5077074;28;20251;-74
2021/08/05 07:19:16;;;;;;;9.48;6.18;;;;;;;20.78;60.46;101055.31;5077999;28;20215;-74
2021/08/05 07:21:41;;;;;;;6.38;5.82;;;;;;;20.46;61.76;101053.38;5055664;28;20033;-73
2021/08/05 07:24:06;;;;;;;9.10;5.75;;;;;;;20.89;59.87;101057.97;5063663;28;20021;-74
2021/08/05 07:26:32;;;;;;;6.13;5.72;;;;;;;20.73;60.46;101049.50;5072131;28;20070;-73
2021/08/05 07:28:57;;;;;;;19.20;17.30;;;;;;;19.78;64.00;101052.47;5060909;28;20323;-74
2021/08/05 07:31:23;;;;;;;7.70;6.40;;;;;;;19.93;63.26;101053.94;5073239;28;20046;-74
2021/08/05 07:33:50;;;;;;;18.13;14.77;;;;;;;18.96;67.91;101054.00;5080503;28;20028;-74
2021/08/05 07:36:16;;;;;;;16.90;15.27;;;;;;;18.34;69.34;101052.19;5049406;28;20032;-74
2021/08/05 07:38:42;;;;;;;24.40;21.80;;;;;;;18.49;69.41;101049.41;5081320;28;20368;-74
2021/08/05 07:41:07;;;;;;;24.35;21.42;;;;;;;18.68;68.47;101047.16;5072639;28;20035;-74
2021/08/05 07:43:33;;;;;;;25.10;22.10;;;;;;;17.81;72.57;101057.56;5079004;28;20138;-73
2021/08/05 07:45:58;;;;;;;30.50;25.90;;;;;;;17.50;74.34;101049.94;5076736;28;20032;-73
2021/08/05 07:48:24;;;;;;;29.95;26.27;;;;;;;17.28;75.35;101048.72;5059529;28;20025;-73
2021/08/05 07:50:49;;;;;;;24.33;19.98;;;;;;;18.77;68.97;101042.97;5048983;28;20109;-73
2021/08/05 07:53:15;;;;;;;34.83;25.15;;;;;;;18.14;72.87;101048.28;5069325;28;20032;-74
2021/08/05 07:55:40;;;;;;;24.40;21.15;;;;;;;19.55;67.38;101044.38;5037983;28;20441;-76
2021/08/05 07:58:06;;;;;;;23.08;20.88;;;;;;;19.14;68.25;101046.50;5071295;28;20037;-74
2021/08/05 08:00:35;;;;;;;15.88;8.95;;;;;;;19.88;65.55;101045.44;5062090;28;20269;-74
2021/08/05 08:03:00;;;;;;;17.50;14.55;;;;;;;19.35;66.14;101043.22;5059103;28;20342;-72
2021/08/05 08:05:25;;;;;;;20.70;17.38;;;;;;;20.16;64.16;101038.03;5074281;28;20047;-74
2021/08/05 08:07:51;;;;;;;20.80;15.82;;;;;;;20.46;63.67;101042.72;5077383;28;20024;-74
2021/08/05 08:10:16;;;;;;;18.63;10.65;;;;;;;21.23;61.61;101041.91;5041242;28;20031;-72
2021/08/05 08:12:42;;;;;;;15.40;13.35;;;;;;;21.36;60.31;101042.56;5075716;28;20036;-76
2021/08/05 08:15:07;;;;;;;20.75;16.48;;;;;;;21.15;59.87;101034.53;5052388;28;20032;-75
2021/08/05 08:17:33;;;;;;;33.03;7.90;;;;;;;21.66;60.17;101039.16;5073779;28;20367;-76
2021/08/05 08:19:58;;;;;;;17.35;15.57;;;;;;;21.97;59.44;101039.22;5073705;28;20040;-75
2021/08/05 08:22:24;;;;;;;17.30;15.50;;;;;;;22.47;57.02;101029.69;5078081;28;20340;-75
2021/08/05 08:24:49;;;;;;;16.85;15.07;;;;;;;22.57;55.85;101033.19;5069050;28;20099;-75
2021/08/05 08:27:14;;;;;;;17.20;15.60;;;;;;;22.89;55.58;101033.00;5071481;28;20411;-75
2021/08/05 08:29:40;;;;;;;17.38;15.55;;;;;;;20.81;59.85;101037.28;5079381;28;20036;-74
2021/08/05 08:32:05;;;;;;;15.70;13.60;;;;;;;21.65;57.68;101036.66;5075717;28;20058;-73
2021/08/05 08:34:31;;;;;;;14.25;13.00;;;;;;;21.07;58.39;101032.50;5072145;28;20044;-80
2021/08/05 08:36:56;;;;;;;15.88;14.30;;;;;;;21.14;58.28;101032.84;5074662;28;20028;-78
2021/08/05 08:39:23;;;;;;;14.77;13.48;;;;;;;22.42;55.58;101032.72;5075567;28;20336;-80
2021/08/05 08:41:49;;;;;;;13.93;12.70;;;;;;;22.60;54.18;101035.59;5050917;28;20028;-77
2021/08/05 08:44:15;;;;;;;13.02;11.75;;;;;;;23.11;52.88;101031.94;5070278;28;20274;-76
2021/08/05 08:46:40;;;;;;;11.52;10.63;;;;;;;22.53;53.18;101029.13;5048374;28;20460;-78
2021/08/05 08:49:06;;;;;;;13.18;12.07;;;;;;;23.96;51.14;101024.16;5038506;28;20336;-77
2021/08/05 08:51:32;;;;;;;12.77;11.77;;;;;;;24.17;50.57;101031.94;5070864;28;20383;-73
2021/08/05 08:53:59;;;;;;;14.07;12.85;;;;;;;22.83;53.88;101030.03;5071018;28;20045;-73
2021/08/05 08:56:24;;;;;;;11.20;10.20;;;;;;;24.57;49.34;101027.31;5053130;28;20035;-75
2021/08/05 08:58:50;;;;;;;13.07;9.40;;;;;;;24.87;50.49;101024.31;5058017;28;20096;-77
2021/08/05 09:01:16;;;;;;;11.45;10.45;;;;;;;25.43;49.42;101026.84;5054506;28;20019;-79
2021/08/05 09:03:42;;;;;;;9.55;8.80;;;;;;;24.66;46.37;101016.53;5068897;28;20032;-80
2021/08/05 09:06:08;;;;;;;11.80;10.32;;;;;;;24.14;47.67;101013.53;5057135;28;20020;-80
2021/08/05 09:08:36;;;;;;;11.05;10.15;;;;;;;24.00;48.95;101009.50;5054559;28;20035;-76
2021/08/05 09:11:02;;;;;;;11.07;10.00;;;;;;;24.79;46.68;101007.31;5053980;28;20044;-76
2021/08/05 09:13:27;;;;;;;11.63;10.35;;;;;;;24.78;48.41;101002.97;5071913;28;20047;-76
2021/08/05 09:15:53;;;;;;;10.80;9.80;;;;;;;25.47;44.55;101007.63;5058019;28;20075;-75
2021/08/05 09:18:38;;;;;;;12.57;11.35;;;;;;;23.68;48.43;100999.13;5090172;28;20079;-75
2021/08/05 09:21:16;;;;;;;10.68;9.70;;;;;;;24.76;45.03;100996.88;5093628;28;20069;-75
2021/08/05 09:23:55;;;;;;;18.15;8.27;;;;;;;25.13;46.43;100995.91;5080569;28;20032;-76
2021/08/05 09:26:22;;;;;;;8.95;8.25;;;;;;;26.08;42.81;100996.97;5077267;28;20598;-75
2021/08/05 09:29:17;;;;;;;8.65;7.95;;;;;;;25.49;44.32;100988.72;5066000;28;20025;-76
2021/08/05 09:31:44;;;;;;;11.52;10.30;;;;;;;25.72;43.39;100985.50;5067782;28;20024;-77
2021/08/05 09:34:17;;;;;;;12.45;11.32;;;;;;;25.05;42.46;100981.47;5061143;28;20031;-80
2021/08/05 09:36:43;;;;;;;12.13;11.23;;;;;;;25.71;44.99;100982.00;5080182;28;20035;-80
2021/08/05 09:39:25;;;;;;;17.35;9.65;;;;;;;26.99;42.83;100980.16;5067322;28;20034;-78
2021/08/05 09:42:04;;;;;;;35.75;9.68;;;;;;;27.00;42.42;100978.31;5061716;28;20047;-75
2021/08/05 09:44:39;;;;;;;10.93;9.80;;;;;;;27.53;42.38;100973.47;5066555;28;20237;-71
2021/08/05 09:47:17;;;;;;;15.13;9.45;;;;;;;28.47;41.44;100971.81;5092333;28;20040;-73
2021/08/05 09:49:45;;;;;;;;;;;;;;;29.26;39.13;100973.53;5092265;28;20063;-73
2021/08/05 09:52:10;;;;;;;12.23;11.23;;;;;;;27.56;40.45;100978.47;5079590;28;20098;-73
2021/08/05 09:54:37;;;;;;;11.23;10.35;;;;;;;27.61;39.97;100973.44;5082160;28;20036;-73
2021/08/05 09:57:03;;;;;;;12.07;10.85;;;;;;;25.79;43.79;100975.81;5067179;28;20128;-72
2021/08/05 09:59:29;;;;;;;12.23;9.80;;;;;;;27.88;42.47;100965.97;5076414;28;20087;-70
2021/08/05 10:01:56;;;;;;;11.00;9.90;;;;;;;26.37;42.59;100969.75;5053403;28;20057;-71
2021/08/05 10:04:31;;;;;;;12.23;9.23;;;;;;;26.81;43.13;100963.34;5068053;28;20044;-72
2021/08/05 10:06:58;;;;;;;11.43;10.25;;;;;;;24.87;44.87;100970.75;5062314;28;20278;-71
2021/08/05 10:09:24;;;;;;;8.90;8.13;;;;;;;29.10;38.85;100967.19;5050541;28;20367;-71
2021/08/05 10:11:49;;;;;;;13.27;8.90;;;;;;;28.86;38.38;100962.84;5091514;28;20026;-72
2021/08/05 10:14:22;;;;;;;10.50;9.60;;;;;;;26.35;42.90;100960.19;5057054;28;20223;-73
2021/08/05 10:16:48;;;;;;;30.25;8.23;;;;;;;28.47;41.80;100958.34;5098034;28;20056;-76
2021/08/05 10:19:13;;;;;;;18.45;8.95;;;;;;;30.27;36.42;100954.22;5058291;28;20207;-76
2021/08/05 10:21:38;;;;;;;27.23;7.90;;;;;;;28.14;42.51;100957.66;5057169;28;20111;-73
2021/08/05 10:24:04;;;;;;;29.08;7.65;;;;;;;27.34;44.36;100951.31;5057457;28;20029;-72
2021/08/05 10:26:29;;;;;;;10.73;9.90;;;;;;;26.18;40.56;100946.72;5060351;28;20047;-73
2021/08/05 10:28:55;;;;;;;12.13;9.40;;;;;;;26.80;41.75;100950.94;5074704;28;20349;-71
2021/08/05 10:31:20;;;;;;;11.65;10.23;;;;;;;25.09;43.75;100947.16;5056940;28;20027;-73
2021/08/05 10:33:46;;;;;;;11.95;10.95;;;;;;;24.40;44.57;100946.78;5065091;28;20028;-73
2021/08/05 10:36:12;;;;;;;11.95;10.75;;;;;;;26.31;42.19;100942.72;5043388;28;20051;-73
2021/08/05 10:38:37;;;;;;;14.05;11.32;;;;;;;27.00;41.33;100948.75;5093791;28;20032;-72
2021/08/05 10:41:02;;;;;;;13.25;12.18;;;;;;;25.65;41.50;100937.88;5078793;28;20028;-72
2021/08/05 10:43:28;;;;;;;18.17;8.35;;;;;;;25.69;47.04;100933.03;5074634;28;20040;-71
2021/08/05 10:45:54;;;;;;;22.45;10.82;;;;;;;26.86;42.17;100933.31;5070599;28;20058;-71
2021/08/05 10:48:19;;;;;;;14.52;13.27;;;;;;;25.61;41.21;100932.97;5059954;28;20035;-72
2021/08/05 10:50:46;;;;;;;14.13;12.80;;;;;;;24.64;42.84;100929.31;5061249;28;20046;-72
2021/08/05 10:53:35;;;;;;;20.10;8.68;;;;;;;27.14;43.63;100921.22;5067121;28;20067;-72
2021/08/05 10:56:17;;;;;;;14.30;12.90;;;;;;;26.85;39.73;100915.50;5083973;28;20028;-72
2021/08/05 10:59:13;;;;;;;18.48;11.88;;;;;;;25.92;41.86;100917.19;5083109;28;20231;-72
2021/08/05 11:01:47;;;;;;;14.50;13.10;;;;;;;24.54;43.98;100910.66;5007727;28;20411;-72
2021/08/05 11:04:34;;;;;;;15.05;13.57;;;;;;;23.94;45.61;100909.28;5099764;28;20923;-72
2021/08/05 11:07:21;;;;;;;14.60;12.93;;;;;;;24.10;45.36;100895.28;5079817;28;20016;-72
2021/08/05 11:09:47;;;;;;;15.37;14.07;;;;;;;24.08;45.14;100907.09;5102111;28;20066;-72
2021/08/05 11:12:40;;;;;;;18.35;15.50;;;;;;;22.75;48.60;100906.09;5097493;28;20293;-72